createdAt,value
2022-11-28T00:00:42.984Z,6.37
2022-11-28T00:04:54.541Z,6.60
2022-11-28T00:09:07.572Z,6.83
2022-11-28T00:13:19.136Z,9.03
2022-11-28T00:17:30.871Z,6.47
2022-11-28T00:21:43.090Z,5.83
2022-11-28T00:26:04.591Z,6.97
2022-11-28T00:30:16.388Z,8.93
2022-11-28T00:34:28.012Z,6.63
2022-11-28T00:38:40.018Z,5.30
2022-11-28T00:42:51.560Z,5.73
2022-11-28T00:47:03.184Z,6.43
2022-11-28T00:51:19.762Z,8.80
2022-11-28T00:55:31.326Z,7.10
2022-11-28T00:59:42.900Z,5.67
2022-11-28T01:03:56.415Z,6.67
2022-11-28T01:08:08.072Z,6.97
2022-11-28T01:12:19.571Z,6.53
2022-11-28T01:16:31.523Z,5.60
2022-11-28T01:20:43.190Z,6.07
2022-11-28T01:24:55.098Z,4.80
2022-11-28T01:29:07.709Z,4.70
2022-11-28T01:33:19.296Z,6.20
2022-11-28T01:37:30.987Z,4.37
2022-11-28T01:41:42.572Z,4.77
2022-11-28T01:45:54.391Z,5.80
2022-11-28T01:50:07.143Z,6.60
2022-11-28T01:54:20.648Z,7.23
2022-11-28T01:58:36.575Z,3.80
2022-11-28T02:02:49.511Z,5.77
2022-11-28T02:07:01.169Z,4.27
2022-11-28T02:11:40.359Z,7.63
2022-11-28T02:16:35.927Z,5.13
2022-11-28T02:21:09.402Z,4.40
2022-11-28T02:25:58.652Z,3.77
2022-11-28T02:30:21.107Z,4.17
2022-11-28T02:34:35.815Z,3.93
2022-11-28T02:39:06.072Z,4.97
2022-11-28T02:43:30.552Z,5.10
2022-11-28T02:47:54.491Z,5.83
2022-11-28T02:52:19.569Z,7.17
2022-11-28T02:56:31.436Z,4.53
2022-11-28T03:00:44.899Z,5.03
2022-11-28T03:05:07.854Z,5.57
2022-11-28T03:09:19.331Z,6.23
2022-11-28T03:13:52.373Z,5.80
2022-11-28T03:18:23.401Z,6.77
2022-11-28T03:22:52.364Z,5.83
2022-11-28T03:27:09.956Z,5.83
2022-11-28T03:31:27.263Z,5.30
2022-11-28T03:35:47.268Z,4.33
2022-11-28T03:40:05.251Z,6.20
2022-11-28T03:44:26.008Z,4.73
2022-11-28T03:48:45.636Z,4.50
2022-11-28T03:53:03.074Z,4.73
2022-11-28T03:57:29.764Z,4.40
2022-11-28T04:01:56.514Z,4.37
2022-11-28T04:06:27.811Z,5.63
2022-11-28T04:10:49.075Z,5.77
2022-11-28T04:15:09.711Z,6.53
2022-11-28T04:19:36.802Z,6.17
2022-11-28T04:23:51.740Z,6.10
2022-11-28T04:28:08.768Z,6.80
2022-11-28T04:32:22.230Z,7.27
2022-11-28T04:36:37.222Z,12.03
2022-11-28T04:41:05.946Z,6.70
2022-11-28T04:45:26.888Z,5.57
2022-11-28T04:49:39.279Z,5.77
2022-11-28T04:54:04.688Z,5.97
2022-11-28T04:58:29.160Z,8.13
2022-11-28T05:02:42.856Z,5.63
2022-11-28T05:07:02.584Z,5.23
2022-11-28T05:11:14.005Z,5.97
2022-11-28T05:15:25.465Z,5.43
2022-11-28T05:19:36.882Z,5.47
2022-11-28T05:23:48.714Z,5.63
2022-11-28T05:28:00.327Z,5.67
2022-11-28T05:32:12.339Z,5.20
2022-11-28T05:36:24.220Z,5.47
2022-11-28T05:40:35.764Z,4.47
2022-11-28T05:44:48.006Z,4.33
2022-11-28T05:48:59.780Z,5.37
2022-11-28T05:53:11.942Z,4.70
2022-11-28T05:57:23.526Z,4.83
2022-11-28T06:01:35.003Z,3.63
2022-11-28T06:05:46.620Z,5.67
2022-11-28T06:09:58.155Z,4.33
2022-11-28T06:14:10.930Z,4.10
2022-11-28T06:18:22.379Z,4.07
2022-11-28T06:22:34.255Z,4.23
2022-11-28T06:26:45.800Z,3.90
2022-11-28T06:30:57.271Z,5.63
2022-11-28T06:35:08.871Z,4.00
2022-11-28T06:39:20.367Z,3.70
2022-11-28T06:43:31.894Z,4.50
2022-11-28T06:47:43.594Z,4.03
2022-11-28T06:51:55.039Z,4.53
2022-11-28T06:56:12.401Z,4.10
2022-11-28T07:00:24.087Z,4.50
2022-11-28T07:04:35.618Z,7.23
2022-11-28T07:08:47.672Z,4.80
2022-11-28T07:13:05.079Z,5.13
2022-11-28T07:17:17.226Z,4.30
2022-11-28T07:21:30.143Z,6.17
2022-11-28T07:25:41.778Z,4.97
2022-11-28T07:29:53.319Z,5.87
2022-11-28T07:34:04.824Z,5.13
2022-11-28T07:38:16.303Z,5.10
2022-11-28T07:42:27.999Z,4.40
2022-11-28T07:46:48.042Z,5.53
2022-11-28T07:50:59.703Z,4.90
2022-11-28T07:55:11.143Z,5.77
2022-11-28T07:59:22.746Z,5.57
2022-11-28T08:03:34.298Z,6.13
2022-11-28T08:07:45.845Z,6.50
2022-11-28T08:11:57.637Z,7.47
2022-11-28T08:16:14.155Z,6.33
2022-11-28T08:20:25.777Z,6.33
2022-11-28T08:24:37.474Z,6.40
2022-11-28T08:28:51.592Z,7.77
2022-11-28T08:33:03.115Z,5.90
2022-11-28T08:37:14.657Z,5.87
2022-11-28T08:41:26.204Z,6.50
2022-11-28T08:45:38.233Z,6.43
2022-11-28T08:49:49.943Z,7.23
2022-11-28T08:54:01.538Z,6.73
2022-11-28T08:58:14.020Z,7.30
2022-11-28T09:02:26.252Z,6.27
2022-11-28T09:06:40.940Z,7.07
2022-11-28T09:10:52.443Z,6.83
2022-11-28T09:15:04.412Z,6.50
2022-11-28T09:19:15.904Z,8.23
2022-11-28T09:23:28.278Z,7.80
2022-11-28T09:27:42.669Z,8.60
2022-11-28T09:31:54.142Z,14.63
2022-11-28T09:36:07.515Z,7.27
2022-11-28T09:40:30.629Z,8.60
2022-11-28T09:44:48.368Z,7.70
2022-11-28T09:49:04.641Z,8.10
2022-11-28T09:53:22.652Z,8.23
2022-11-28T09:57:49.632Z,7.17
2022-11-28T10:02:09.776Z,6.93
2022-11-28T10:06:37.058Z,6.53
2022-11-28T10:10:57.515Z,6.10
2022-11-28T10:15:18.970Z,5.30
2022-11-28T10:19:56.964Z,6.30
2022-11-28T10:24:38.359Z,5.47
2022-11-28T10:28:53.766Z,5.70
2022-11-28T10:33:19.161Z,6.47
2022-11-28T10:37:34.591Z,6.00
2022-11-28T10:42:11.906Z,5.57
2022-11-28T10:46:41.796Z,10.07
2022-11-28T10:50:59.686Z,8.10
2022-11-28T10:55:36.879Z,9.13
2022-11-28T11:00:09.627Z,7.13
2022-11-28T11:04:24.210Z,7.80
2022-11-28T11:08:38.240Z,7.77
2022-11-28T11:12:54.693Z,13.63
2022-11-28T11:17:06.857Z,11.40
2022-11-28T11:21:24.439Z,10.70
2022-11-28T11:25:36.290Z,11.43
2022-11-28T11:29:51.355Z,11.57
2022-11-28T11:34:04.762Z,13.67
2022-11-28T11:38:22.400Z,9.70
2022-11-28T11:42:33.971Z,11.10
2022-11-28T11:46:52.604Z,9.13
2022-11-28T11:51:05.045Z,12.53
2022-11-28T11:55:17.517Z,10.23
2022-11-28T11:59:31.453Z,8.90
2022-11-28T12:03:58.581Z,9.43
2022-11-28T12:08:31.564Z,9.83
2022-11-28T12:12:43.392Z,9.13
2022-11-28T12:17:47.728Z,9.63
2022-11-28T12:22:25.673Z,12.83
2022-11-28T12:26:57.270Z,11.83
2022-11-28T12:31:19.374Z,10.83
2022-11-28T12:35:49.008Z,9.13
2022-11-28T12:40:56.107Z,13.30
2022-11-28T12:45:18.552Z,10.83
2022-11-28T12:49:57.925Z,10.37
2022-11-28T12:54:37.880Z,10.30
2022-11-28T12:59:35.433Z,8.73
2022-11-28T13:04:04.474Z,11.60
2022-11-28T13:08:48.216Z,9.73
2022-11-28T13:13:13.654Z,10.67
2022-11-28T13:17:30.839Z,8.87
2022-11-28T13:22:01.069Z,8.67
2022-11-28T13:26:22.715Z,9.23
2022-11-28T13:30:43.417Z,9.20
2022-11-28T13:34:55.493Z,10.53
2022-11-28T13:39:16.788Z,8.90
2022-11-28T13:43:56.980Z,8.67
2022-11-28T13:49:06.225Z,36.00
2022-11-28T13:53:10.321Z,11.20
2022-11-28T13:57:35.725Z,10.23
2022-11-28T14:01:58.968Z,10.77
2022-11-28T14:06:14.533Z,11.10
2022-11-28T14:10:50.478Z,10.13
2022-11-28T14:15:26.304Z,8.63
2022-11-28T14:20:24.214Z,13.30
2022-11-28T14:24:56.041Z,10.90
2022-11-28T14:29:21.276Z,9.43
2022-11-28T14:33:44.302Z,10.90
2022-11-28T14:37:57.720Z,10.73
2022-11-28T14:42:09.924Z,14.93
2022-11-28T14:46:29.027Z,13.50
2022-11-28T14:50:41.319Z,17.30
2022-11-28T14:54:54.621Z,23.98
2022-11-28T14:59:10.985Z,18.90
2022-11-28T15:03:49.814Z,24.80
2022-11-28T15:08:32.835Z,20.35
2022-11-28T15:13:11.318Z,17.37
2022-11-28T15:17:33.523Z,58.05
2022-11-28T15:21:51.737Z,28.60
2022-11-28T15:26:03.593Z,20.50
2022-11-28T15:30:17.895Z,70.55
2022-11-28T15:34:37.678Z,60.45
2022-11-28T15:38:49.387Z,103.60
2022-11-28T15:43:03.365Z,78.35
2022-11-28T15:47:21.502Z,164.87
2022-11-28T15:51:35.550Z,36.73
2022-11-28T15:55:47.634Z,40.90
2022-11-28T15:59:59.268Z,46.13
2022-11-28T16:04:14.894Z,84.05
2022-11-28T16:08:30.524Z,37.47
2022-11-28T16:12:42.154Z,30.13
2022-11-28T16:16:54.168Z,48.95
2022-11-28T16:21:12.918Z,41.40
2022-11-28T16:25:26.500Z,49.65
2022-11-28T16:29:46.495Z,46.35
2022-11-28T16:33:59.873Z,47.47
2022-11-28T16:38:24.805Z,43.10
2022-11-28T16:42:36.350Z,54.47
2022-11-28T16:46:56.498Z,49.95
2022-11-28T16:51:10.984Z,50.45
2022-11-28T16:55:28.732Z,62.92
2022-11-28T16:59:44.671Z,53.55
2022-11-28T17:03:57.743Z,48.78
2022-11-28T17:08:09.298Z,49.85
2022-11-28T17:12:29.512Z,47.63
2022-11-28T17:16:42.092Z,53.45
2022-11-28T17:20:53.984Z,54.80
2022-11-28T17:25:07.862Z,53.92
2022-11-28T17:29:20.205Z,54.40
2022-11-28T17:33:31.847Z,58.90
2022-11-28T17:37:43.550Z,60.45
2022-11-28T17:41:56.935Z,70.43
2022-11-28T17:46:09.032Z,51.40
2022-11-28T17:50:20.729Z,59.43
2022-11-28T17:54:32.542Z,67.38
2022-11-28T17:58:44.929Z,87.93
2022-11-28T18:02:57.788Z,70.97
2022-11-28T18:07:09.642Z,60.05
2022-11-28T18:11:21.255Z,49.50
2022-11-28T18:15:35.661Z,53.72
2022-11-28T18:19:47.427Z,50.93
2022-11-28T18:23:59.308Z,43.80
2022-11-28T18:28:18.459Z,49.65
2022-11-28T18:32:32.636Z,53.28
2022-11-28T18:36:44.768Z,58.60
2022-11-28T18:40:56.330Z,63.38
2022-11-28T18:45:10.828Z,63.50
2022-11-28T18:49:22.493Z,61.58
2022-11-28T18:53:34.103Z,53.97
2022-11-28T18:57:45.787Z,51.93
2022-11-28T19:01:57.608Z,50.20
2022-11-28T19:06:12.037Z,51.30
2022-11-28T19:10:23.646Z,47.15
2022-11-28T19:14:35.473Z,48.42
2022-11-28T19:18:47.556Z,47.50
2022-11-28T19:22:59.244Z,45.75
2022-11-28T19:27:14.290Z,43.13
2022-11-28T19:31:30.011Z,44.45
2022-11-28T19:35:43.131Z,48.75
2022-11-28T19:39:58.530Z,51.53
2022-11-28T19:44:13.144Z,48.38
2022-11-28T19:48:24.826Z,56.03
2022-11-28T19:52:36.780Z,48.07
2022-11-28T19:57:02.556Z,44.25
2022-11-28T20:01:19.572Z,61.53
2022-11-28T20:05:32.872Z,47.70
2022-11-28T20:09:45.448Z,46.15
2022-11-28T20:14:03.518Z,49.83
2022-11-28T20:18:15.122Z,47.70
2022-11-28T20:22:26.767Z,45.83
2022-11-28T20:26:41.548Z,47.13
2022-11-28T20:30:53.683Z,44.53
2022-11-28T20:35:05.632Z,53.38
2022-11-28T20:39:17.529Z,59.07
2022-11-28T20:43:30.886Z,68.17
2022-11-28T20:47:48.281Z,69.43
2022-11-28T20:52:01.357Z,52.53
2022-11-28T20:56:15.738Z,65.67
2022-11-28T21:00:27.288Z,52.50
2022-11-28T21:04:38.878Z,48.73
2022-11-28T21:08:50.470Z,59.87
2022-11-28T21:13:02.015Z,58.87
2022-11-28T21:17:13.500Z,62.00
2022-11-28T21:21:27.429Z,61.50
2022-11-28T21:25:40.796Z,52.20
2022-11-28T21:29:52.756Z,51.10
2022-11-28T21:34:04.573Z,51.20
2022-11-28T21:38:16.100Z,47.38
2022-11-28T21:42:27.795Z,57.13
2022-11-28T21:46:39.441Z,57.50
2022-11-28T21:50:51.593Z,69.57
2022-11-28T21:55:03.496Z,59.50
2022-11-28T21:59:15.412Z,55.27
2022-11-28T22:03:28.557Z,49.43
2022-11-28T22:07:40.275Z,56.15
2022-11-28T22:11:52.149Z,69.67
2022-11-28T22:16:19.606Z,54.37
2022-11-28T22:20:31.178Z,50.90
2022-11-28T22:24:42.768Z,54.23
2022-11-28T22:28:54.658Z,55.77
2022-11-28T22:33:07.939Z,63.35
2022-11-28T22:37:19.445Z,48.47
2022-11-28T22:41:31.247Z,57.30
2022-11-28T22:45:43.588Z,61.60
2022-11-28T22:49:55.211Z,57.60
2022-11-28T22:54:11.132Z,58.23
2022-11-28T22:58:22.792Z,56.72
2022-11-28T23:02:34.750Z,65.07
2022-11-28T23:06:46.319Z,61.60
2022-11-28T23:10:58.131Z,56.50
2022-11-28T23:15:10.179Z,64.78
2022-11-28T23:19:21.728Z,58.27
2022-11-28T23:23:35.418Z,65.43
2022-11-28T23:27:46.940Z,65.53
2022-11-28T23:31:58.550Z,69.93
2022-11-28T23:36:17.753Z,71.97
2022-11-28T23:40:29.501Z,62.57
2022-11-28T23:44:41.241Z,58.75
2022-11-28T23:48:53.493Z,53.40
2022-11-28T23:53:05.094Z,63.70
2022-11-28T23:57:17.084Z,52.22
